sensor_id;sensor_type;location;lat;lon;timestamp;pressure;altitude;pressure_sealevel;temperature;humidity
63500;BME280;49654;51.142;14.924;2023-09-12T00:01:04;98869.63;;;17.83;78.68
63500;BME280;49654;51.142;14.924;2023-09-12T00:03:34;98847.00;;;17.70;78.24
63500;BME280;49654;51.142;14.924;2023-09-12T00:06:02;98872.03;;;17.84;78.52
63500;BME280;49654;51.142;14.924;2023-09-12T00:08:29;98855.91;;;17.81;78.22
63500;BME280;49654;51.142;14.924;2023-09-12T00:11:01;98848.81;;;17.69;78.92
63500;BME280;49654;51.142;14.924;2023-09-12T00:13:28;98864.78;;;17.68;79.42
63500;BME280;49654;51.142;14.924;2023-09-12T00:15:56;98866.63;;;17.67;80.11
63500;BME280;49654;51.142;14.924;2023-09-12T00:18:22;98834.44;;;17.60;80.23
63500;BME280;49654;51.142;14.924;2023-09-12T00:20:51;98849.84;;;17.68;80.19
63500;BME280;49654;51.142;14.924;2023-09-12T00:23:19;98856.34;;;17.66;80.04
63500;BME280;49654;51.142;14.924;2023-09-12T00:25:47;98857.25;;;17.71;80.29
63500;BME280;49654;51.142;14.924;2023-09-12T00:28:14;98839.78;;;17.53;79.38
63500;BME280;49654;51.142;14.924;2023-09-12T00:30:41;98854.63;;;17.71;79.03
63500;BME280;49654;51.142;14.924;2023-09-12T00:33:07;98848.81;;;17.69;79.03
63500;BME280;49654;51.142;14.924;2023-09-12T00:35:34;98851.91;;;17.66;80.02
63500;BME280;49654;51.142;14.924;2023-09-12T00:38:03;98845.94;;;17.59;79.72
63500;BME280;49654;51.142;14.924;2023-09-12T00:40:32;98849.72;;;17.51;80.89
63500;BME280;49654;51.142;14.924;2023-09-12T00:42:59;98852.09;;;17.41;81.33
63500;BME280;49654;51.142;14.924;2023-09-12T00:45:26;98839.78;;;17.42;82.06
63500;BME280;49654;51.142;14.924;2023-09-12T00:47:53;98833.97;;;17.40;81.29
63500;BME280;49654;51.142;14.924;2023-09-12T00:50:21;98829.38;;;17.23;81.44
63500;BME280;49654;51.142;14.924;2023-09-12T00:52:50;98844.09;;;17.36;82.19
63500;BME280;49654;51.142;14.924;2023-09-12T00:55:18;98843.19;;;17.42;81.51
63500;BME280;49654;51.142;14.924;2023-09-12T00:57:46;98847.91;;;17.52;80.72
63500;BME280;49654;51.142;14.924;2023-09-12T01:00:14;98830.66;;;17.44;81.08
63500;BME280;49654;51.142;14.924;2023-09-12T01:02:43;98844.47;;;17.40;80.98
63500;BME280;49654;51.142;14.924;2023-09-12T01:05:12;98845.13;;;17.47;80.95
63500;BME280;49654;51.142;14.924;2023-09-12T01:07:40;98818.28;;;17.21;81.52
63500;BME280;49654;51.142;14.924;2023-09-12T01:10:09;98840.44;;;17.37;81.43
63500;BME280;49654;51.142;14.924;2023-09-12T01:12:38;98849.94;;;17.50;80.51
63500;BME280;49654;51.142;14.924;2023-09-12T01:15:06;98842.06;;;17.50;80.31
63500;BME280;49654;51.142;14.924;2023-09-12T01:17:40;98843.34;;;17.47;80.71
63500;BME280;49654;51.142;14.924;2023-09-12T01:20:11;98837.41;;;17.52;80.00
63500;BME280;49654;51.142;14.924;2023-09-12T01:22:52;98843.81;;;17.56;80.37
63500;BME280;49654;51.142;14.924;2023-09-12T01:26:01;98839.69;;;17.60;79.45
63500;BME280;49654;51.142;14.924;2023-09-12T01:28:34;98839.78;;;17.53;79.32
63500;BME280;49654;51.142;14.924;2023-09-12T01:31:02;98773.09;;;16.96;80.19
63500;BME280;49654;51.142;14.924;2023-09-12T01:33:30;98845.25;;;17.40;80.48
63500;BME280;49654;51.142;14.924;2023-09-12T01:35:57;98845.66;;;17.25;81.17
63500;BME280;49654;51.142;14.924;2023-09-12T01:38:24;98845.22;;;17.28;81.44
63500;BME280;49654;51.142;14.924;2023-09-12T01:40:53;98847.06;;;17.28;80.98
63500;BME280;49654;51.142;14.924;2023-09-12T01:43:23;98838.47;;;17.09;81.20
63500;BME280;49654;51.142;14.924;2023-09-12T01:45:54;98805.75;;;16.82;82.09
63500;BME280;49654;51.142;14.924;2023-09-12T01:48:23;98835.13;;;17.02;82.46
63500;BME280;49654;51.142;14.924;2023-09-12T01:50:52;98846.91;;;17.11;81.57
63500;BME280;49654;51.142;14.924;2023-09-12T01:53:20;98850.72;;;17.27;80.81
63500;BME280;49654;51.142;14.924;2023-09-12T01:55:48;98848.44;;;17.31;80.03
63500;BME280;49654;51.142;14.924;2023-09-12T01:58:15;98849.41;;;17.06;80.50
63500;BME280;49654;51.142;14.924;2023-09-12T02:00:42;98850.13;;;17.13;81.63
63500;BME280;49654;51.142;14.924;2023-09-12T02:03:11;98845.53;;;17.09;81.90
63500;BME280;49654;51.142;14.924;2023-09-12T02:05:38;98857.78;;;17.26;81.66
63500;BME280;49654;51.142;14.924;2023-09-12T02:08:06;98859.38;;;17.27;81.34
63500;BME280;49654;51.142;14.924;2023-09-12T02:10:33;98855.97;;;17.27;81.69
63500;BME280;49654;51.142;14.924;2023-09-12T02:13:00;98845.56;;;17.20;80.74
63500;BME280;49654;51.142;14.924;2023-09-12T02:15:27;98857.91;;;17.32;80.41
63500;BME280;49654;51.142;14.924;2023-09-12T02:17:54;98854.25;;;17.33;80.53
63500;BME280;49654;51.142;14.924;2023-09-12T02:20:22;98844.78;;;17.32;80.72
63500;BME280;49654;51.142;14.924;2023-09-12T02:22:49;98841.94;;;17.45;81.44
63500;BME280;49654;51.142;14.924;2023-09-12T02:25:17;98843.53;;;17.34;82.09
63500;BME280;49654;51.142;14.924;2023-09-12T02:27:44;98856.53;;;17.17;82.99
63500;BME280;49654;51.142;14.924;2023-09-12T02:30:11;98843.59;;;17.16;83.39
63500;BME280;49654;51.142;14.924;2023-09-12T02:32:38;98833.41;;;16.96;83.46
63500;BME280;49654;51.142;14.924;2023-09-12T02:35:05;98854.72;;;16.88;84.12
63500;BME280;49654;51.142;14.924;2023-09-12T02:37:33;98856.91;;;17.02;84.17
63500;BME280;49654;51.142;14.924;2023-09-12T02:40:01;98772.19;;;16.72;82.27
63500;BME280;49654;51.142;14.924;2023-09-12T02:42:28;98851.03;;;17.19;82.10
63500;BME280;49654;51.142;14.924;2023-09-12T02:44:55;98849.56;;;17.23;82.73
63500;BME280;49654;51.142;14.924;2023-09-12T02:47:22;98852.06;;;17.18;83.23
63500;BME280;49654;51.142;14.924;2023-09-12T02:49:49;98849.88;;;17.15;83.38
63500;BME280;49654;51.142;14.924;2023-09-12T02:52:16;98828.28;;;17.01;83.77
63500;BME280;49654;51.142;14.924;2023-09-12T02:54:44;98840.63;;;17.12;83.63
63500;BME280;49654;51.142;14.924;2023-09-12T02:57:11;98844.28;;;17.11;83.24
63500;BME280;49654;51.142;14.924;2023-09-12T02:59:39;98837.16;;;17.00;83.43
63500;BME280;49654;51.142;14.924;2023-09-12T03:02:05;98834.06;;;16.91;83.75
63500;BME280;49654;51.142;14.924;2023-09-12T03:04:35;98838.66;;;16.96;83.39
63500;BME280;49654;51.142;14.924;2023-09-12T03:07:02;98838.78;;;17.01;82.27
63500;BME280;49654;51.142;14.924;2023-09-12T03:09:29;98842.66;;;16.98;81.70
63500;BME280;49654;51.142;14.924;2023-09-12T03:11:57;98844.13;;;16.94;81.10
63500;BME280;49654;51.142;14.924;2023-09-12T03:14:27;98847.72;;;16.82;82.49
63500;BME280;49654;51.142;14.924;2023-09-12T03:16:54;98847.16;;;16.80;83.17
63500;BME280;49654;51.142;14.924;2023-09-12T03:19:21;98802.19;;;16.46;83.60
63500;BME280;49654;51.142;14.924;2023-09-12T03:21:48;98768.59;;;16.24;83.55
63500;BME280;49654;51.142;14.924;2023-09-12T03:24:15;98838.28;;;16.62;84.14
63500;BME280;49654;51.142;14.924;2023-09-12T03:26:44;98832.00;;;16.63;85.16
63500;BME280;49654;51.142;14.924;2023-09-12T03:29:12;98846.44;;;16.72;85.00
63500;BME280;49654;51.142;14.924;2023-09-12T03:31:39;98843.81;;;16.72;84.84
63500;BME280;49654;51.142;14.924;2023-09-12T03:34:06;98847.31;;;16.66;84.45
63500;BME280;49654;51.142;14.924;2023-09-12T03:36:33;98838.84;;;16.64;84.83
63500;BME280;49654;51.142;14.924;2023-09-12T03:39:00;98849.47;;;16.69;83.45
63500;BME280;49654;51.142;14.924;2023-09-12T03:41:27;98846.84;;;16.69;83.27
63500;BME280;49654;51.142;14.924;2023-09-12T03:43:54;98842.63;;;16.68;83.56
63500;BME280;49654;51.142;14.924;2023-09-12T03:46:23;98774.63;;;16.25;82.71
63500;BME280;49654;51.142;14.924;2023-09-12T03:48:50;98851.38;;;16.44;83.44
63500;BME280;49654;51.142;14.924;2023-09-12T03:51:17;98824.34;;;16.32;84.65
63500;BME280;49654;51.142;14.924;2023-09-12T03:53:44;98851.19;;;16.45;84.61
63500;BME280;49654;51.142;14.924;2023-09-12T03:56:13;98859.25;;;16.44;84.48
63500;BME280;49654;51.142;14.924;2023-09-12T03:58:41;98853.72;;;16.52;82.55
63500;BME280;49654;51.142;14.924;2023-09-12T04:01:08;98850.09;;;16.53;81.59
63500;BME280;49654;51.142;14.924;2023-09-12T04:03:36;98851.97;;;16.46;81.79
63500;BME280;49654;51.142;14.924;2023-09-12T04:06:03;98859.53;;;16.36;82.21
63500;BME280;49654;51.142;14.924;2023-09-12T04:08:30;98861.66;;;16.27;83.18
63500;BME280;49654;51.142;14.924;2023-09-12T04:10:58;98853.97;;;16.32;83.79
63500;BME280;49654;51.142;14.924;2023-09-12T04:13:25;98857.75;;;16.36;83.47
63500;BME280;49654;51.142;14.924;2023-09-12T04:15:52;98851.91;;;16.34;83.78
63500;BME280;49654;51.142;14.924;2023-09-12T04:18:18;98855.84;;;16.25;83.52
63500;BME280;49654;51.142;14.924;2023-09-12T04:20:47;98868.56;;;16.21;84.01
63500;BME280;49654;51.142;14.924;2023-09-12T04:23:14;98863.34;;;16.21;84.33
63500;BME280;49654;51.142;14.924;2023-09-12T04:25:41;98872.97;;;16.27;82.84
63500;BME280;49654;51.142;14.924;2023-09-12T04:28:09;98866.84;;;16.34;82.28
63500;BME280;49654;51.142;14.924;2023-09-12T04:30:36;98856.34;;;16.34;82.54
63500;BME280;49654;51.142;14.924;2023-09-12T04:33:05;98854.91;;;16.38;82.70
63500;BME280;49654;51.142;14.924;2023-09-12T04:35:33;98841.84;;;16.31;82.42
63500;BME280;49654;51.142;14.924;2023-09-12T04:38:01;98771.88;;;15.83;82.31
63500;BME280;49654;51.142;14.924;2023-09-12T04:40:29;98864.44;;;16.32;83.27
63500;BME280;49654;51.142;14.924;2023-09-12T04:42:57;98842.09;;;16.30;82.77
63500;BME280;49654;51.142;14.924;2023-09-12T04:45:24;98856.78;;;16.49;82.49
63500;BME280;49654;51.142;14.924;2023-09-12T04:47:51;98772.03;;;16.07;81.94
63500;BME280;49654;51.142;14.924;2023-09-12T04:50:18;98842.84;;;16.48;81.67
63500;BME280;49654;51.142;14.924;2023-09-12T04:52:45;98791.56;;;16.22;82.56
63500;BME280;49654;51.142;14.924;2023-09-12T04:55:13;98834.00;;;16.49;82.54
63500;BME280;49654;51.142;14.924;2023-09-12T04:57:40;98858.00;;;16.65;83.15
63500;BME280;49654;51.142;14.924;2023-09-12T05:00:08;98850.06;;;16.71;82.49
63500;BME280;49654;51.142;14.924;2023-09-12T05:02:36;98859.47;;;16.79;82.44
63500;BME280;49654;51.142;14.924;2023-09-12T05:05:04;98855.09;;;17.03;81.67
63500;BME280;49654;51.142;14.924;2023-09-12T05:07:31;98861.78;;;17.29;80.27
63500;BME280;49654;51.142;14.924;2023-09-12T05:09:58;98861.69;;;17.36;80.41
63500;BME280;49654;51.142;14.924;2023-09-12T05:12:26;98862.72;;;17.46;79.81
63500;BME280;49654;51.142;14.924;2023-09-12T05:14:53;98864.78;;;17.44;80.07
63500;BME280;49654;51.142;14.924;2023-09-12T05:17:20;98864.91;;;17.49;80.49
63500;BME280;49654;51.142;14.924;2023-09-12T05:19:47;98861.47;;;17.49;80.83
63500;BME280;49654;51.142;14.924;2023-09-12T05:22:14;98868.44;;;17.67;80.30
63500;BME280;49654;51.142;14.924;2023-09-12T05:24:41;98862.97;;;17.68;80.16
63500;BME280;49654;51.142;14.924;2023-09-12T05:27:08;98867.22;;;17.81;79.77
63500;BME280;49654;51.142;14.924;2023-09-12T05:29:37;98870.19;;;17.85;79.69
63500;BME280;49654;51.142;14.924;2023-09-12T05:32:05;98868.69;;;17.65;81.33
63500;BME280;49654;51.142;14.924;2023-09-12T05:34:32;98866.97;;;17.71;81.63
63500;BME280;49654;51.142;14.924;2023-09-12T05:36:59;98863.91;;;17.86;81.02
63500;BME280;49654;51.142;14.924;2023-09-12T05:39:26;98867.78;;;18.18;80.19
63500;BME280;49654;51.142;14.924;2023-09-12T05:41:53;98875.72;;;18.47;78.92
63500;BME280;49654;51.142;14.924;2023-09-12T05:44:20;98851.03;;;18.48;78.63
63500;BME280;49654;51.142;14.924;2023-09-12T05:46:48;98863.56;;;18.69;78.41
63500;BME280;49654;51.142;14.924;2023-09-12T05:49:15;98863.28;;;18.83;78.51
63500;BME280;49654;51.142;14.924;2023-09-12T05:51:42;98859.41;;;18.85;78.39
63500;BME280;49654;51.142;14.924;2023-09-12T05:54:10;98863.56;;;18.98;78.60
63500;BME280;49654;51.142;14.924;2023-09-12T05:56:37;98862.22;;;19.12;78.28
63500;BME280;49654;51.142;14.924;2023-09-12T05:59:04;98866.41;;;19.25;77.88
63500;BME280;49654;51.142;14.924;2023-09-12T06:01:31;98866.09;;;19.38;77.60
63500;BME280;49654;51.142;14.924;2023-09-12T06:03:59;98859.47;;;19.36;77.83
63500;BME280;49654;51.142;14.924;2023-09-12T06:06:27;98864.91;;;19.46;78.63
63500;BME280;49654;51.142;14.924;2023-09-12T06:08:54;98868.78;;;19.60;78.91
63500;BME280;49654;51.142;14.924;2023-09-12T06:11:22;98877.44;;;19.72;79.00
63500;BME280;49654;51.142;14.924;2023-09-12T06:13:49;98869.47;;;19.84;78.97
63500;BME280;49654;51.142;14.924;2023-09-12T06:16:16;98869.13;;;19.97;79.24
63500;BME280;49654;51.142;14.924;2023-09-12T06:18:43;98876.84;;;20.04;79.38
63500;BME280;49654;51.142;14.924;2023-09-12T06:21:11;98841.72;;;19.98;79.39
63500;BME280;49654;51.142;14.924;2023-09-12T06:23:38;98872.94;;;20.29;79.47
63500;BME280;49654;51.142;14.924;2023-09-12T06:26:05;98871.03;;;20.46;79.76
63500;BME280;49654;51.142;14.924;2023-09-12T06:28:32;98869.41;;;20.62;79.42
63500;BME280;49654;51.142;14.924;2023-09-12T06:30:59;98861.72;;;20.82;78.75
63500;BME280;49654;51.142;14.924;2023-09-12T06:33:26;98864.31;;;21.04;77.60
63500;BME280;49654;51.142;14.924;2023-09-12T06:35:56;98834.19;;;21.00;76.55
63500;BME280;49654;51.142;14.924;2023-09-12T06:38:25;98833.94;;;21.01;77.00
63500;BME280;49654;51.142;14.924;2023-09-12T06:40:52;98866.88;;;21.26;77.70
63500;BME280;49654;51.142;14.924;2023-09-12T06:43:19;98871.41;;;21.31;78.37
63500;BME280;49654;51.142;14.924;2023-09-12T06:45:46;98868.03;;;21.35;78.79
63500;BME280;49654;51.142;14.924;2023-09-12T06:48:13;98872.09;;;21.43;79.29
63500;BME280;49654;51.142;14.924;2023-09-12T06:50:40;98875.81;;;21.47;79.35
63500;BME280;49654;51.142;14.924;2023-09-12T06:53:07;98878.47;;;21.52;79.85
63500;BME280;49654;51.142;14.924;2023-09-12T06:55:37;98851.22;;;21.41;80.00
63500;BME280;49654;51.142;14.924;2023-09-12T06:58:04;98875.97;;;21.67;79.40
63500;BME280;49654;51.142;14.924;2023-09-12T07:00:31;98877.78;;;21.67;79.31
63500;BME280;49654;51.142;14.924;2023-09-12T07:02:58;98873.88;;;21.74;78.47
63500;BME280;49654;51.142;14.924;2023-09-12T07:05:25;98885.53;;;21.79;78.10
63500;BME280;49654;51.142;14.924;2023-09-12T07:07:52;98871.25;;;21.74;77.72
63500;BME280;49654;51.142;14.924;2023-09-12T07:10:19;98887.44;;;21.88;77.06
63500;BME280;49654;51.142;14.924;2023-09-12T07:12:47;98891.50;;;22.01;74.47
63500;BME280;49654;51.142;14.924;2023-09-12T07:15:15;98892.06;;;22.08;74.43
63500;BME280;49654;51.142;14.924;2023-09-12T07:17:42;98891.13;;;22.24;71.75
63500;BME280;49654;51.142;14.924;2023-09-12T07:20:09;98891.22;;;22.40;71.41
63500;BME280;49654;51.142;14.924;2023-09-12T07:22:38;98897.34;;;22.50;70.94
63500;BME280;49654;51.142;14.924;2023-09-12T07:25:07;98890.25;;;22.71;69.76
63500;BME280;49654;51.142;14.924;2023-09-12T07:27:35;98895.13;;;23.00;68.48
63500;BME280;49654;51.142;14.924;2023-09-12T07:30:04;98893.56;;;23.30;66.62
63500;BME280;49654;51.142;14.924;2023-09-12T07:32:31;98898.34;;;23.53;65.40
63500;BME280;49654;51.142;14.924;2023-09-12T07:34:58;98880.84;;;23.57;64.01
63500;BME280;49654;51.142;14.924;2023-09-12T07:37:25;98881.13;;;23.76;61.87
63500;BME280;49654;51.142;14.924;2023-09-12T07:39:52;98897.19;;;24.26;62.02
63500;BME280;49654;51.142;14.924;2023-09-12T07:42:21;98897.88;;;24.62;59.15
63500;BME280;49654;51.142;14.924;2023-09-12T07:44:48;98895.66;;;24.84;59.15
63500;BME280;49654;51.142;14.924;2023-09-12T07:47:17;98900.03;;;25.04;58.61
63500;BME280;49654;51.142;14.924;2023-09-12T07:49:44;98903.59;;;25.34;55.96
63500;BME280;49654;51.142;14.924;2023-09-12T07:52:11;98901.06;;;25.53;56.06
63500;BME280;49654;51.142;14.924;2023-09-12T07:54:38;98901.06;;;25.82;55.31
63500;BME280;49654;51.142;14.924;2023-09-12T07:57:05;98892.53;;;25.85;54.28
63500;BME280;49654;51.142;14.924;2023-09-12T07:59:33;98879.00;;;25.81;55.85
63500;BME280;49654;51.142;14.924;2023-09-12T08:02:00;98894.34;;;25.89;55.19
63500;BME280;49654;51.142;14.924;2023-09-12T08:04:28;98898.78;;;25.99;54.63
63500;BME280;49654;51.142;14.924;2023-09-12T08:06:55;98900.19;;;26.15;55.00
63500;BME280;49654;51.142;14.924;2023-09-12T08:09:22;98897.44;;;26.26;55.27
63500;BME280;49654;51.142;14.924;2023-09-12T08:11:49;98879.38;;;26.22;55.98
63500;BME280;49654;51.142;14.924;2023-09-12T08:14:16;98861.81;;;26.45;54.32
63500;BME280;49654;51.142;14.924;2023-09-12T08:16:46;98894.38;;;26.99;52.29
63500;BME280;49654;51.142;14.924;2023-09-12T08:19:13;98894.53;;;27.08;49.38
63500;BME280;49654;51.142;14.924;2023-09-12T08:21:41;98899.94;;;27.21;50.47
63500;BME280;49654;51.142;14.924;2023-09-12T08:24:08;98869.97;;;27.30;51.21
63500;BME280;49654;51.142;14.924;2023-09-12T08:26:35;98898.06;;;27.55;50.48
63500;BME280;49654;51.142;14.924;2023-09-12T08:29:02;98902.50;;;27.45;49.66
63500;BME280;49654;51.142;14.924;2023-09-12T08:31:29;98906.34;;;27.53;47.93
63500;BME280;49654;51.142;14.924;2023-09-12T08:33:57;98908.06;;;27.63;48.50
63500;BME280;49654;51.142;14.924;2023-09-12T08:36:24;98901.34;;;27.65;47.97
63500;BME280;49654;51.142;14.924;2023-09-12T08:38:52;98895.78;;;27.81;47.89
63500;BME280;49654;51.142;14.924;2023-09-12T08:41:19;98902.13;;;27.99;46.31
63500;BME280;49654;51.142;14.924;2023-09-12T08:43:47;98887.69;;;28.13;46.86
63500;BME280;49654;51.142;14.924;2023-09-12T08:46:15;98907.56;;;28.07;44.90
63500;BME280;49654;51.142;14.924;2023-09-12T08:48:44;98894.44;;;28.25;46.58
63500;BME280;49654;51.142;14.924;2023-09-12T08:51:12;98902.22;;;28.35;44.87
63500;BME280;49654;51.142;14.924;2023-09-12T08:53:39;98900.44;;;28.16;45.06
63500;BME280;49654;51.142;14.924;2023-09-12T08:56:09;98902.31;;;28.30;45.72
63500;BME280;49654;51.142;14.924;2023-09-12T08:58:37;98906.00;;;28.34;46.25
63500;BME280;49654;51.142;14.924;2023-09-12T09:01:06;98910.88;;;28.45;43.22
63500;BME280;49654;51.142;14.924;2023-09-12T09:03:37;98899.13;;;28.69;44.36
63500;BME280;49654;51.142;14.924;2023-09-12T09:06:05;98903.13;;;28.94;42.31
63500;BME280;49654;51.142;14.924;2023-09-12T09:08:32;98902.47;;;28.88;42.31
63500;BME280;49654;51.142;14.924;2023-09-12T09:11:01;98906.66;;;29.39;43.41
63500;BME280;49654;51.142;14.924;2023-09-12T09:13:30;98905.22;;;29.87;40.74
63500;BME280;49654;51.142;14.924;2023-09-12T09:16:10;98899.97;;;30.13;40.58
63500;BME280;49654;51.142;14.924;2023-09-12T09:18:51;98901.13;;;29.58;41.45
63500;BME280;49654;51.142;14.924;2023-09-12T09:21:19;98901.06;;;29.50;41.67
63500;BME280;49654;51.142;14.924;2023-09-12T09:23:50;98901.13;;;29.58;41.92
63500;BME280;49654;51.142;14.924;2023-09-12T09:26:18;98901.38;;;29.71;40.23
63500;BME280;49654;51.142;14.924;2023-09-12T09:29:01;98898.09;;;29.74;39.66
63500;BME280;49654;51.142;14.924;2023-09-12T09:31:29;98896.06;;;29.79;39.13
63500;BME280;49654;51.142;14.924;2023-09-12T09:33:58;98900.16;;;29.77;41.47
63500;BME280;49654;51.142;14.924;2023-09-12T09:36:25;98894.25;;;29.66;40.90
63500;BME280;49654;51.142;14.924;2023-09-12T09:38:52;98893.28;;;29.39;40.82
63500;BME280;49654;51.142;14.924;2023-09-12T09:41:21;98899.88;;;29.56;40.08
63500;BME280;49654;51.142;14.924;2023-09-12T09:43:50;98884.53;;;29.48;40.94
63500;BME280;49654;51.142;14.924;2023-09-12T09:46:18;98891.59;;;29.43;39.23
63500;BME280;49654;51.142;14.924;2023-09-12T09:48:48;98887.69;;;29.50;41.39
63500;BME280;49654;51.142;14.924;2023-09-12T09:51:16;98891.53;;;29.57;40.65
63500;BME280;49654;51.142;14.924;2023-09-12T09:53:43;98887.34;;;29.65;39.75
63500;BME280;49654;51.142;14.924;2023-09-12T09:56:11;98876.44;;;29.61;39.99
63500;BME280;49654;51.142;14.924;2023-09-12T09:58:45;98875.41;;;29.71;40.02
63500;BME280;49654;51.142;14.924;2023-09-12T10:01:17;98879.44;;;29.60;40.43
63500;BME280;49654;51.142;14.924;2023-09-12T10:03:45;98850.81;;;29.60;40.18
63500;BME280;49654;51.142;14.924;2023-09-12T10:06:15;98875.41;;;29.71;40.07
63500;BME280;49654;51.142;14.924;2023-09-12T10:08:43;98829.69;;;29.59;41.01
63500;BME280;49654;51.142;14.924;2023-09-12T10:11:12;98869.22;;;30.50;39.17
63500;BME280;49654;51.142;14.924;2023-09-12T10:13:46;98847.72;;;30.15;39.57
63500;BME280;49654;51.142;14.924;2023-09-12T10:16:16;98878.06;;;30.51;38.08
63500;BME280;49654;51.142;14.924;2023-09-12T10:18:48;98861.03;;;30.47;39.44
63500;BME280;49654;51.142;14.924;2023-09-12T10:21:21;98871.56;;;30.34;39.16
63500;BME280;49654;51.142;14.924;2023-09-12T10:23:52;98871.75;;;30.55;38.06
63500;BME280;49654;51.142;14.924;2023-09-12T10:26:22;98857.72;;;30.41;37.34
63500;BME280;49654;51.142;14.924;2023-09-12T10:28:50;98869.06;;;30.55;38.85
63500;BME280;49654;51.142;14.924;2023-09-12T10:31:19;98868.00;;;30.74;38.67
63500;BME280;49654;51.142;14.924;2023-09-12T10:33:46;98861.69;;;30.87;40.07
63500;BME280;49654;51.142;14.924;2023-09-12T10:36:15;98870.50;;;31.05;40.14
63500;BME280;49654;51.142;14.924;2023-09-12T10:38:45;98864.84;;;31.06;39.04
63500;BME280;49654;51.142;14.924;2023-09-12T10:41:14;98862.47;;;31.05;37.64
63500;BME280;49654;51.142;14.924;2023-09-12T10:43:43;98869.41;;;31.23;37.50
63500;BME280;49654;51.142;14.924;2023-09-12T10:46:12;98856.47;;;31.16;38.08
63500;BME280;49654;51.142;14.924;2023-09-12T10:48:41;98867.97;;;31.43;37.75
63500;BME280;49654;51.142;14.924;2023-09-12T10:51:09;98868.72;;;31.61;38.35
63500;BME280;49654;51.142;14.924;2023-09-12T10:53:37;98860.59;;;31.87;36.02
63500;BME280;49654;51.142;14.924;2023-09-12T10:56:15;98864.56;;;31.72;34.42
63500;BME280;49654;51.142;14.924;2023-09-12T10:59:16;98864.88;;;31.71;35.64
63500;BME280;49654;51.142;14.924;2023-09-12T11:01:43;98868.53;;;31.66;35.17
63500;BME280;49654;51.142;14.924;2023-09-12T11:04:31;98835.63;;;31.13;35.35
63500;BME280;49654;51.142;14.924;2023-09-12T11:07:00;98863.88;;;31.37;35.87
63500;BME280;49654;51.142;14.924;2023-09-12T11:09:27;98844.97;;;30.99;37.87
63500;BME280;49654;51.142;14.924;2023-09-12T11:11:56;98853.00;;;31.07;36.08
63500;BME280;49654;51.142;14.924;2023-09-12T11:14:23;98870.34;;;31.27;37.43
63500;BME280;49654;51.142;14.924;2023-09-12T11:17:22;98864.66;;;31.46;37.35
63500;BME280;49654;51.142;14.924;2023-09-12T11:19:52;98876.75;;;31.70;36.77
63500;BME280;49654;51.142;14.924;2023-09-12T11:22:24;98874.41;;;32.06;34.83
63500;BME280;49654;51.142;14.924;2023-09-12T11:24:51;98875.81;;;32.12;35.01
63500;BME280;49654;51.142;14.924;2023-09-12T11:27:18;98868.75;;;31.99;36.25
63500;BME280;49654;51.142;14.924;2023-09-12T11:29:46;98873.28;;;32.07;34.56
63500;BME280;49654;51.142;14.924;2023-09-12T11:32:25;98873.69;;;31.88;36.35
63500;BME280;49654;51.142;14.924;2023-09-12T11:34:54;98876.25;;;31.67;35.92
63500;BME280;49654;51.142;14.924;2023-09-12T11:37:25;98871.78;;;31.33;35.58
63500;BME280;49654;51.142;14.924;2023-09-12T11:39:53;98879.66;;;31.30;37.34
63500;BME280;49654;51.142;14.924;2023-09-12T11:42:20;98855.59;;;31.59;35.07
63500;BME280;49654;51.142;14.924;2023-09-12T11:44:51;98871.00;;;31.80;36.64
63500;BME280;49654;51.142;14.924;2023-09-12T11:47:19;98875.03;;;31.65;34.19
63500;BME280;49654;51.142;14.924;2023-09-12T11:49:46;98871.84;;;31.72;34.24
63500;BME280;49654;51.142;14.924;2023-09-12T11:52:15;98803.28;;;31.36;36.46
63500;BME280;49654;51.142;14.924;2023-09-12T11:54:43;98868.09;;;32.02;35.13
63500;BME280;49654;51.142;14.924;2023-09-12T11:57:12;98868.97;;;32.15;34.65
63500;BME280;49654;51.142;14.924;2023-09-12T11:59:41;98861.78;;;32.28;35.22
63500;BME280;49654;51.142;14.924;2023-09-12T12:02:11;98864.47;;;32.28;35.34
63500;BME280;49654;51.142;14.924;2023-09-12T12:04:41;98856.19;;;32.12;34.98
63500;BME280;49654;51.142;14.924;2023-09-12T12:07:09;98860.63;;;32.16;34.09
63500;BME280;49654;51.142;14.924;2023-09-12T12:09:38;98865.78;;;32.22;33.91
63500;BME280;49654;51.142;14.924;2023-09-12T12:12:12;98862.72;;;32.61;33.56
63500;BME280;49654;51.142;14.924;2023-09-12T12:14:40;98857.19;;;32.58;33.35
63500;BME280;49654;51.142;14.924;2023-09-12T12:17:08;98857.47;;;32.35;33.38
63500;BME280;49654;51.142;14.924;2023-09-12T12:19:35;98844.09;;;32.27;33.87
63500;BME280;49654;51.142;14.924;2023-09-12T12:22:03;98840.41;;;32.40;34.78
63500;BME280;49654;51.142;14.924;2023-09-12T12:24:38;98843.09;;;32.82;33.52
63500;BME280;49654;51.142;14.924;2023-09-12T12:27:05;98843.53;;;32.84;33.71
63500;BME280;49654;51.142;14.924;2023-09-12T12:29:34;98810.91;;;32.52;33.84
63500;BME280;49654;51.142;14.924;2023-09-12T12:32:01;98815.81;;;32.50;31.93
63500;BME280;49654;51.142;14.924;2023-09-12T12:34:29;98832.88;;;32.96;32.78
63500;BME280;49654;51.142;14.924;2023-09-12T12:36:56;98823.00;;;33.33;33.95
63500;BME280;49654;51.142;14.924;2023-09-12T12:39:23;98818.84;;;33.24;32.51
63500;BME280;49654;51.142;14.924;2023-09-12T12:41:53;98754.50;;;32.85;32.30
63500;BME280;49654;51.142;14.924;2023-09-12T12:44:20;98829.03;;;33.30;33.10
63500;BME280;49654;51.142;14.924;2023-09-12T12:46:48;98830.56;;;33.52;32.02
63500;BME280;49654;51.142;14.924;2023-09-12T12:49:15;98817.34;;;33.72;32.29
63500;BME280;49654;51.142;14.924;2023-09-12T12:51:43;98818.94;;;33.85;29.74
63500;BME280;49654;51.142;14.924;2023-09-12T12:54:10;98823.28;;;33.77;30.67
63500;BME280;49654;51.142;14.924;2023-09-12T12:56:37;98816.13;;;34.18;30.23